createdAt,value
2018-06-14T00:01:36.209Z,1.90
2018-06-14T00:04:04.348Z,1.70
2018-06-14T00:06:32.446Z,1.90
2018-06-14T00:09:00.561Z,2.03
2018-06-14T00:11:28.643Z,1.93
2018-06-14T00:13:56.737Z,2.20
2018-06-14T00:16:24.839Z,1.90
2018-06-14T00:18:52.961Z,1.90
2018-06-14T00:21:21.071Z,1.80
2018-06-14T00:23:49.172Z,2.00
2018-06-14T00:26:17.289Z,2.00
2018-06-14T00:28:45.367Z,2.10
2018-06-14T00:31:13.484Z,2.03
2018-06-14T00:33:41.572Z,1.70
2018-06-14T00:36:09.667Z,1.90
2018-06-14T00:38:37.969Z,2.17
2018-06-14T00:41:06.105Z,2.17
2018-06-14T00:43:34.053Z,2.33
2018-06-14T00:46:02.206Z,2.23
2018-06-14T00:48:30.142Z,2.00
2018-06-14T00:50:58.240Z,2.10
2018-06-14T00:53:26.547Z,1.93
2018-06-14T00:55:54.658Z,1.80
2018-06-14T00:58:22.751Z,2.00
2018-06-14T01:00:50.852Z,2.00
2018-06-14T01:03:18.976Z,1.87
2018-06-14T01:05:46.846Z,2.00
2018-06-14T01:08:14.944Z,2.37
2018-06-14T01:10:43.063Z,1.60
2018-06-14T01:13:11.200Z,2.10
2018-06-14T01:15:39.277Z,2.00
2018-06-14T01:18:07.336Z,1.80
2018-06-14T01:20:35.419Z,2.37
2018-06-14T01:23:03.527Z,2.50
2018-06-14T01:25:31.643Z,2.37
2018-06-14T01:27:59.522Z,1.80
2018-06-14T01:30:27.436Z,1.80
2018-06-14T01:32:55.559Z,1.70
2018-06-14T01:35:23.681Z,1.70
2018-06-14T01:38:03.474Z,2.37
2018-06-14T01:40:31.559Z,1.87
2018-06-14T01:42:59.639Z,2.43
2018-06-14T01:45:27.720Z,2.23
2018-06-14T01:47:56.184Z,2.10
2018-06-14T01:50:24.096Z,2.13
2018-06-14T01:52:52.315Z,2.50
2018-06-14T01:55:20.452Z,2.07
2018-06-14T01:57:48.545Z,2.17
2018-06-14T02:00:16.656Z,2.50
2018-06-14T02:02:44.730Z,1.60
2018-06-14T02:05:12.864Z,1.97
2018-06-14T02:07:40.833Z,1.73
2018-06-14T02:10:08.952Z,1.90
2018-06-14T02:12:37.083Z,2.30
2018-06-14T02:15:05.388Z,2.50
2018-06-14T02:17:33.529Z,1.97
2018-06-14T02:20:01.642Z,2.23
2018-06-14T02:22:29.796Z,2.03
2018-06-14T02:24:57.936Z,2.30
2018-06-14T02:27:26.038Z,2.67
2018-06-14T02:29:53.942Z,2.10
2018-06-14T02:32:21.843Z,2.60
2018-06-14T02:34:49.956Z,2.50
2018-06-14T02:37:18.080Z,2.20
2018-06-14T02:39:46.188Z,2.30
2018-06-14T02:42:14.320Z,1.80
2018-06-14T02:44:42.216Z,1.77
2018-06-14T02:47:10.328Z,2.83
2018-06-14T02:49:38.432Z,2.63
2018-06-14T02:52:06.581Z,2.57
2018-06-14T02:54:34.705Z,2.20
2018-06-14T02:57:02.613Z,2.07
2018-06-14T02:59:30.761Z,2.60
2018-06-14T03:01:58.852Z,2.33
2018-06-14T03:04:26.997Z,2.20
2018-06-14T03:06:55.147Z,1.63
2018-06-14T03:09:23.243Z,2.20
2018-06-14T03:11:51.355Z,2.07
2018-06-14T03:14:19.485Z,2.60
2018-06-14T03:16:47.593Z,2.50
2018-06-14T03:19:15.696Z,2.43
2018-06-14T03:21:43.851Z,2.70
2018-06-14T03:24:11.969Z,2.40
2018-06-14T03:26:40.094Z,2.67
2018-06-14T03:29:08.344Z,2.50
2018-06-14T03:31:36.448Z,2.40
2018-06-14T03:34:04.686Z,2.70
2018-06-14T03:36:32.782Z,2.43
2018-06-14T03:39:00.912Z,2.30
2018-06-14T03:41:29.000Z,2.47
2018-06-14T03:43:57.137Z,2.50
2018-06-14T03:46:26.024Z,2.30
2018-06-14T03:48:54.093Z,2.40
2018-06-14T03:51:22.201Z,2.20
2018-06-14T03:53:50.322Z,2.43
2018-06-14T03:56:18.456Z,2.17
2018-06-14T03:58:46.373Z,2.87
2018-06-14T04:01:14.473Z,2.20
2018-06-14T04:03:42.580Z,2.00
2018-06-14T04:06:10.714Z,2.13
2018-06-14T04:08:38.854Z,2.50
2018-06-14T04:11:06.732Z,2.43
2018-06-14T04:13:34.617Z,1.63
2018-06-14T04:16:02.749Z,2.17
2018-06-14T04:18:30.915Z,2.60
2018-06-14T04:20:58.988Z,3.00
2018-06-14T04:23:27.118Z,2.70
2018-06-14T04:25:55.080Z,2.70
2018-06-14T04:28:23.208Z,2.83
2018-06-14T04:30:51.336Z,2.90
2018-06-14T04:33:19.466Z,2.77
2018-06-14T04:35:47.588Z,2.20
2018-06-14T04:38:15.708Z,2.60
2018-06-14T04:40:43.819Z,2.20
2018-06-14T04:43:11.961Z,2.80
2018-06-14T04:45:40.072Z,2.70
2018-06-14T04:48:08.196Z,2.23
2018-06-14T04:50:36.092Z,2.20
2018-06-14T04:53:03.991Z,2.83
2018-06-14T04:55:32.118Z,2.00
2018-06-14T04:58:07.029Z,2.53
2018-06-14T05:00:36.138Z,2.30
2018-06-14T05:03:04.276Z,2.30
2018-06-14T05:05:32.376Z,2.37
2018-06-14T05:08:00.517Z,2.50
2018-06-14T05:10:28.725Z,2.40
2018-06-14T05:12:56.853Z,2.27
2018-06-14T05:15:24.996Z,2.30
2018-06-14T05:17:53.104Z,2.83
2018-06-14T05:20:21.233Z,1.80
2018-06-14T05:22:49.368Z,2.90
2018-06-14T05:25:17.469Z,1.87
2018-06-14T05:27:45.582Z,2.50
2018-06-14T05:30:13.706Z,1.80
2018-06-14T05:32:41.797Z,1.87
2018-06-14T05:35:09.929Z,1.97
2018-06-14T05:37:37.899Z,2.53
2018-06-14T05:40:06.047Z,2.80
2018-06-14T05:42:34.241Z,2.10
2018-06-14T05:45:02.298Z,2.83
2018-06-14T05:47:30.440Z,2.20
2018-06-14T05:50:05.357Z,2.40
2018-06-14T05:52:33.493Z,1.70
2018-06-14T05:55:01.613Z,2.50
2018-06-14T05:57:29.728Z,2.00
2018-06-14T05:59:57.849Z,2.40
2018-06-14T06:02:25.999Z,2.27
2018-06-14T06:04:55.316Z,2.90
2018-06-14T06:07:23.435Z,2.10
2018-06-14T06:09:51.577Z,2.00
2018-06-14T06:12:19.543Z,2.20
2018-06-14T06:14:47.672Z,2.60
2018-06-14T06:17:15.583Z,2.70
2018-06-14T06:19:43.764Z,1.90
2018-06-14T06:22:11.844Z,2.80
2018-06-14T06:24:39.998Z,2.30
2018-06-14T06:27:08.121Z,2.50
2018-06-14T06:29:36.251Z,2.40
2018-06-14T06:32:10.698Z,2.27
2018-06-14T06:34:38.800Z,1.80
2018-06-14T06:37:06.959Z,2.27
2018-06-14T06:39:35.090Z,2.43
2018-06-14T06:42:02.980Z,3.03
2018-06-14T06:44:31.260Z,2.43
2018-06-14T06:46:59.399Z,2.80
2018-06-14T06:49:27.291Z,2.67
2018-06-14T06:51:55.429Z,2.60
2018-06-14T06:54:23.565Z,2.97
2018-06-14T06:56:51.697Z,2.53
2018-06-14T06:59:19.804Z,2.30
2018-06-14T07:01:47.917Z,3.00
2018-06-14T07:04:16.014Z,2.67
2018-06-14T07:06:44.148Z,2.73
2018-06-14T07:09:12.744Z,2.70
2018-06-14T07:11:41.263Z,2.93
2018-06-14T07:14:09.453Z,2.23
2018-06-14T07:16:38.369Z,2.60
2018-06-14T07:19:06.468Z,3.07
2018-06-14T07:21:35.163Z,2.60
2018-06-14T07:24:03.243Z,2.40
2018-06-14T07:26:31.376Z,2.60
2018-06-14T07:28:59.675Z,2.40
2018-06-14T07:31:28.815Z,2.50
2018-06-14T07:33:57.097Z,2.50
2018-06-14T07:36:25.277Z,3.20
2018-06-14T07:38:53.425Z,2.70
2018-06-14T07:41:21.631Z,2.67
2018-06-14T07:43:49.750Z,3.03
2018-06-14T07:46:17.868Z,2.57
2018-06-14T07:48:45.980Z,2.73
2018-06-14T07:51:14.220Z,2.53
2018-06-14T07:53:42.128Z,2.00
2018-06-14T07:56:10.280Z,2.63
2018-06-14T07:58:38.513Z,3.10
2018-06-14T08:01:06.661Z,3.10
2018-06-14T08:03:34.773Z,2.57
2018-06-14T08:06:02.750Z,3.87
2018-06-14T08:08:30.913Z,2.70
2018-06-14T08:10:58.820Z,2.50
2018-06-14T08:13:26.962Z,2.33
2018-06-14T08:15:55.084Z,2.90
2018-06-14T08:18:23.198Z,2.70
2018-06-14T08:20:51.354Z,3.23
2018-06-14T08:23:19.537Z,2.60
2018-06-14T08:25:47.661Z,3.17
2018-06-14T08:28:15.795Z,3.83
2018-06-14T08:30:43.955Z,3.30
2018-06-14T08:33:12.057Z,3.47
2018-06-14T08:35:40.174Z,3.40
2018-06-14T08:38:08.363Z,3.10
2018-06-14T08:40:36.465Z,3.10
2018-06-14T08:43:04.596Z,3.40
2018-06-14T08:45:32.729Z,3.47
2018-06-14T08:48:00.825Z,3.37
2018-06-14T08:50:28.947Z,3.20
2018-06-14T08:52:57.076Z,3.90
2018-06-14T08:55:25.212Z,3.37
2018-06-14T08:57:53.394Z,3.60
2018-06-14T09:00:21.517Z,3.20
2018-06-14T09:02:49.921Z,3.07
2018-06-14T09:05:18.056Z,3.47
2018-06-14T09:07:46.208Z,2.73
2018-06-14T09:10:14.357Z,2.87
2018-06-14T09:12:42.456Z,2.67
2018-06-14T09:15:10.573Z,3.50
2018-06-14T09:17:38.701Z,4.03
2018-06-14T09:20:06.833Z,3.10
2018-06-14T09:22:34.962Z,2.67
2018-06-14T09:25:03.078Z,3.27
2018-06-14T09:27:31.208Z,3.53
2018-06-14T09:29:59.359Z,3.00
2018-06-14T09:32:27.483Z,3.33
2018-06-14T09:34:55.620Z,3.20
2018-06-14T09:37:23.856Z,3.53
2018-06-14T09:39:51.964Z,2.83
2018-06-14T09:42:20.088Z,3.80
2018-06-14T09:44:48.258Z,3.20
2018-06-14T09:47:16.384Z,3.00
2018-06-14T09:49:44.564Z,2.80
2018-06-14T09:52:12.661Z,3.80
2018-06-14T09:54:40.784Z,3.90
2018-06-14T09:57:08.933Z,2.80
2018-06-14T09:59:37.079Z,3.53
2018-06-14T10:02:05.193Z,3.53
2018-06-14T10:04:33.319Z,3.27
2018-06-14T10:07:01.469Z,2.70
2018-06-14T10:09:29.595Z,2.93
2018-06-14T10:11:57.757Z,2.83
2018-06-14T10:14:25.873Z,3.03
2018-06-14T10:16:54.014Z,3.20
2018-06-14T10:19:22.177Z,3.07
2018-06-14T10:21:50.357Z,3.57
2018-06-14T10:24:18.432Z,3.40
2018-06-14T10:26:46.553Z,3.67
2018-06-14T10:29:14.791Z,2.47
2018-06-14T10:31:42.872Z,3.60
2018-06-14T10:34:10.985Z,3.00
2018-06-14T10:36:39.107Z,3.00
2018-06-14T10:39:07.660Z,2.97
2018-06-14T10:41:36.788Z,3.20
2018-06-14T10:44:04.899Z,2.80
2018-06-14T10:46:33.057Z,3.90
2018-06-14T10:49:01.516Z,3.23
2018-06-14T10:51:30.588Z,2.97
2018-06-14T10:53:58.716Z,3.40
2018-06-14T10:56:26.836Z,2.93
2018-06-14T10:58:54.982Z,3.13
2018-06-14T11:01:23.106Z,3.07
2018-06-14T11:03:51.246Z,3.17
2018-06-14T11:06:19.365Z,2.80
2018-06-14T11:08:47.501Z,2.50
2018-06-14T11:11:15.632Z,3.40
2018-06-14T11:13:43.753Z,2.93
2018-06-14T11:16:12.024Z,2.70
2018-06-14T11:18:40.124Z,2.80
2018-06-14T11:21:08.272Z,2.77
2018-06-14T11:23:36.390Z,2.23
2018-06-14T11:26:04.493Z,3.50
2018-06-14T11:28:32.629Z,3.17
2018-06-14T11:31:00.749Z,3.70
2018-06-14T11:33:28.941Z,3.47
2018-06-14T11:35:57.640Z,3.53
2018-06-14T11:38:25.792Z,2.80
2018-06-14T11:40:53.914Z,2.93
2018-06-14T11:43:22.038Z,3.00
2018-06-14T11:45:50.172Z,2.93
2018-06-14T11:48:18.335Z,3.73
2018-06-14T11:50:46.214Z,3.90
2018-06-14T11:53:14.401Z,2.37
2018-06-14T11:55:42.553Z,3.07
2018-06-14T11:58:10.703Z,2.70
2018-06-14T12:00:38.849Z,2.47
2018-06-14T12:03:07.005Z,2.70
2018-06-14T12:05:35.134Z,3.00
2018-06-14T12:08:03.293Z,2.60
2018-06-14T12:10:31.391Z,2.83
2018-06-14T12:12:59.518Z,2.83
2018-06-14T12:15:27.646Z,3.20
2018-06-14T12:17:55.756Z,2.63
2018-06-14T12:20:23.956Z,2.50
2018-06-14T12:22:52.088Z,2.73
2018-06-14T12:25:20.221Z,2.80
2018-06-14T12:27:48.330Z,2.80
2018-06-14T12:30:16.449Z,2.57
2018-06-14T12:32:44.562Z,2.70
2018-06-14T12:35:12.676Z,2.17
2018-06-14T12:37:40.837Z,2.37
2018-06-14T12:40:08.895Z,3.20
2018-06-14T12:42:37.028Z,2.80
2018-06-14T12:45:05.253Z,2.30
2018-06-14T12:47:33.376Z,3.30
2018-06-14T12:50:01.523Z,2.97
2018-06-14T12:52:29.676Z,2.87
2018-06-14T12:54:57.801Z,2.90
2018-06-14T12:57:25.982Z,2.73
2018-06-14T12:59:54.131Z,3.50
2018-06-14T13:02:22.351Z,3.10
2018-06-14T13:04:50.229Z,2.37
2018-06-14T13:07:18.345Z,2.80
2018-06-14T13:09:46.472Z,2.50
2018-06-14T13:12:14.597Z,2.70
2018-06-14T13:14:42.709Z,5.10
2018-06-14T13:17:10.834Z,3.83
2018-06-14T13:19:38.972Z,3.73
2018-06-14T13:22:07.112Z,3.03
2018-06-14T13:24:39.292Z,3.23
2018-06-14T13:27:07.464Z,3.10
2018-06-14T13:29:35.602Z,3.33
2018-06-14T13:32:03.720Z,2.60
2018-06-14T13:34:31.868Z,2.83
2018-06-14T13:37:00.009Z,2.47
2018-06-14T13:39:28.097Z,2.80
2018-06-14T13:41:56.056Z,2.70
2018-06-14T13:44:24.178Z,2.40
2018-06-14T13:46:52.280Z,2.70
2018-06-14T13:49:20.413Z,3.07
2018-06-14T13:51:48.536Z,3.10
2018-06-14T13:54:16.661Z,2.40
2018-06-14T13:56:44.786Z,2.50
2018-06-14T13:59:12.697Z,3.17
2018-06-14T14:01:41.073Z,2.53
2018-06-14T14:04:09.005Z,2.50
2018-06-14T14:06:37.106Z,2.50
2018-06-14T14:09:08.057Z,2.33
2018-06-14T14:11:36.184Z,2.70
2018-06-14T14:14:04.310Z,3.00
2018-06-14T14:16:32.424Z,2.50
2018-06-14T14:19:00.341Z,2.93
2018-06-14T14:21:28.477Z,2.03
2018-06-14T14:23:57.017Z,2.73
2018-06-14T14:26:25.754Z,2.20
2018-06-14T14:28:53.872Z,2.37
2018-06-14T14:31:22.101Z,2.70
2018-06-14T14:33:50.276Z,2.70
2018-06-14T14:36:18.364Z,2.37
2018-06-14T14:38:46.601Z,2.67
2018-06-14T14:41:14.808Z,2.40
2018-06-14T14:43:42.915Z,2.73
2018-06-14T14:46:10.931Z,2.20
2018-06-14T14:48:38.898Z,2.33
2018-06-14T14:51:07.196Z,2.33
2018-06-14T14:53:35.360Z,2.50
2018-06-14T14:56:03.494Z,2.30
2018-06-14T14:58:31.657Z,2.53
2018-06-14T15:00:59.584Z,2.13
2018-06-14T15:03:27.721Z,2.70
2018-06-14T15:05:55.854Z,2.20
2018-06-14T15:08:23.993Z,2.90
2018-06-14T15:10:52.128Z,2.30
2018-06-14T15:13:20.269Z,2.60
2018-06-14T15:15:48.394Z,2.57
2018-06-14T15:18:16.512Z,2.10
2018-06-14T15:20:44.626Z,2.70
2018-06-14T15:23:12.928Z,2.73
2018-06-14T15:25:41.029Z,2.47
2018-06-14T15:28:09.160Z,2.33
2018-06-14T15:30:37.297Z,2.77
2018-06-14T15:33:05.465Z,2.20
2018-06-14T15:35:33.628Z,2.77
2018-06-14T15:38:01.853Z,2.80
2018-06-14T15:40:29.985Z,2.87
2018-06-14T15:42:58.149Z,2.33
2018-06-14T15:45:26.270Z,2.67
2018-06-14T15:47:54.472Z,2.40
2018-06-14T15:50:22.888Z,2.60
2018-06-14T15:52:51.000Z,2.30
2018-06-14T15:55:32.445Z,2.10
2018-06-14T15:58:00.633Z,2.80
2018-06-14T16:00:28.879Z,2.60
2018-06-14T16:02:57.045Z,2.67
2018-06-14T16:05:25.260Z,2.50
2018-06-14T16:07:53.424Z,2.33
2018-06-14T16:10:21.627Z,2.27
2018-06-14T16:12:49.749Z,2.40
2018-06-14T16:15:17.909Z,2.10
2018-06-14T16:17:46.042Z,2.60
2018-06-14T16:20:14.246Z,2.53
2018-06-14T16:22:42.380Z,2.40
2018-06-14T16:25:10.276Z,2.43
2018-06-14T16:27:38.408Z,2.30
2018-06-14T16:30:06.589Z,2.33
2018-06-14T16:32:34.754Z,2.60
2018-06-14T16:35:02.942Z,2.70
2018-06-14T16:37:31.088Z,2.53
2018-06-14T16:39:59.184Z,2.93
2018-06-14T16:42:27.296Z,2.63
2018-06-14T16:44:55.412Z,3.00
2018-06-14T16:47:23.542Z,3.20
2018-06-14T16:49:51.704Z,2.70
2018-06-14T16:52:19.842Z,3.30
2018-06-14T16:54:47.975Z,2.37
2018-06-14T16:57:16.080Z,3.13
2018-06-14T16:59:44.209Z,3.20
2018-06-14T17:02:12.427Z,2.67
2018-06-14T17:04:40.564Z,2.60
2018-06-14T17:07:08.672Z,3.10
2018-06-14T17:09:36.801Z,3.20
2018-06-14T17:12:04.985Z,2.87
2018-06-14T17:14:32.844Z,3.30
2018-06-14T17:17:00.964Z,4.20
2018-06-14T17:19:29.062Z,3.13
2018-06-14T17:21:57.318Z,2.80
2018-06-14T17:24:25.497Z,3.27
2018-06-14T17:26:53.616Z,2.93
2018-06-14T17:29:21.828Z,2.87
2018-06-14T17:31:50.133Z,3.03
2018-06-14T17:34:18.333Z,3.17
2018-06-14T17:36:46.209Z,4.70
2018-06-14T17:39:14.326Z,6.37
2018-06-14T17:41:42.394Z,6.20
2018-06-14T17:44:10.521Z,7.00
2018-06-14T17:46:38.665Z,8.37
2018-06-14T17:49:06.781Z,8.00
2018-06-14T17:51:34.907Z,6.67
2018-06-14T17:54:02.848Z,9.07
2018-06-14T17:56:30.993Z,10.77
2018-06-14T17:58:59.105Z,12.10
2018-06-14T18:01:27.362Z,12.23
2018-06-14T18:03:55.468Z,11.13
2018-06-14T18:06:23.641Z,11.07
2018-06-14T18:08:51.771Z,14.83
2018-06-14T18:11:19.905Z,13.40
2018-06-14T18:13:48.097Z,11.30
2018-06-14T18:16:16.217Z,11.10
2018-06-14T18:18:44.368Z,9.63
2018-06-14T18:21:12.301Z,14.17
2018-06-14T18:23:40.552Z,12.30
2018-06-14T18:26:08.736Z,16.87
2018-06-14T18:28:36.880Z,10.57
2018-06-14T18:31:04.787Z,9.17
2018-06-14T18:33:32.963Z,11.60
2018-06-14T18:36:01.124Z,10.90
2018-06-14T18:38:29.249Z,11.10
2018-06-14T18:40:57.389Z,10.70
2018-06-14T18:43:25.531Z,11.30
2018-06-14T18:45:53.699Z,10.37
2018-06-14T18:48:21.797Z,13.73
2018-06-14T18:50:49.951Z,16.47
2018-06-14T18:53:18.141Z,10.17
2018-06-14T18:55:46.268Z,8.20
2018-06-14T18:58:14.381Z,9.60
2018-06-14T19:00:42.501Z,9.67
2018-06-14T19:03:10.877Z,9.70
2018-06-14T19:05:39.017Z,10.60
2018-06-14T19:08:07.146Z,13.30
2018-06-14T19:10:35.293Z,7.20
2018-06-14T19:13:03.425Z,8.50
2018-06-14T19:15:31.557Z,11.30
2018-06-14T19:17:59.681Z,11.40
2018-06-14T19:20:27.800Z,10.90
2018-06-14T19:22:55.945Z,9.63
2018-06-14T19:25:24.078Z,8.30
2018-06-14T19:27:52.215Z,8.73
2018-06-14T19:30:20.316Z,9.03
2018-06-14T19:32:48.452Z,10.53
2018-06-14T19:35:16.593Z,8.50
2018-06-14T19:37:44.702Z,8.23
2018-06-14T19:40:12.870Z,8.70
2018-06-14T19:42:40.984Z,8.20
2018-06-14T19:45:09.116Z,11.73
2018-06-14T19:47:37.042Z,7.70
2018-06-14T19:50:05.205Z,8.77
2018-06-14T19:52:33.181Z,9.23
2018-06-14T19:55:01.309Z,8.90
2018-06-14T19:57:29.444Z,7.57
2018-06-14T19:59:57.604Z,8.63
2018-06-14T20:02:32.237Z,7.23
2018-06-14T20:05:00.400Z,7.53
2018-06-14T20:07:28.540Z,14.43
2018-06-14T20:09:56.673Z,8.00
2018-06-14T20:12:24.796Z,8.60
2018-06-14T20:14:52.897Z,8.20
2018-06-14T20:17:21.060Z,7.80
2018-06-14T20:19:49.204Z,8.20
2018-06-14T20:22:17.317Z,9.10
2018-06-14T20:24:45.477Z,8.13
2018-06-14T20:27:13.601Z,7.40
2018-06-14T20:29:41.736Z,12.33
2018-06-14T20:32:09.883Z,8.33
2018-06-14T20:34:38.064Z,7.70
2018-06-14T20:37:06.168Z,7.63
2018-06-14T20:39:34.300Z,8.67
2018-06-14T20:42:02.497Z,11.20
2018-06-14T20:44:30.574Z,6.60
2018-06-14T20:46:58.711Z,7.80
2018-06-14T20:49:26.856Z,5.93
2018-06-14T20:51:55.103Z,7.50
2018-06-14T20:54:23.177Z,6.70
2018-06-14T20:56:51.328Z,9.17
2018-06-14T20:59:19.446Z,6.70
2018-06-14T21:01:47.568Z,7.80
2018-06-14T21:04:15.694Z,10.40
2018-06-14T21:06:43.600Z,10.50
2018-06-14T21:09:11.963Z,8.27
2018-06-14T21:11:40.379Z,9.40
2018-06-14T21:14:08.665Z,8.67
2018-06-14T21:16:37.509Z,7.57
2018-06-14T21:19:05.844Z,6.43
2018-06-14T21:21:33.981Z,9.27
2018-06-14T21:24:02.093Z,5.90
2018-06-14T21:26:30.215Z,6.90
2018-06-14T21:28:58.425Z,8.17
2018-06-14T21:31:26.566Z,7.47
2018-06-14T21:33:54.685Z,6.87
2018-06-14T21:36:22.814Z,7.83
2018-06-14T21:38:50.916Z,11.20
2018-06-14T21:41:19.059Z,10.47
2018-06-14T21:43:47.205Z,7.00
2018-06-14T21:46:15.992Z,6.90
2018-06-14T21:48:44.093Z,6.50
2018-06-14T21:51:12.200Z,6.77
2018-06-14T21:53:40.326Z,6.50
2018-06-14T21:56:08.431Z,6.40
2018-06-14T21:58:36.556Z,7.87
2018-06-14T22:01:04.483Z,6.77
2018-06-14T22:03:38.031Z,8.00
2018-06-14T22:06:06.102Z,6.83
2018-06-14T22:08:34.277Z,7.67
2018-06-14T22:11:02.420Z,8.80
2018-06-14T22:13:30.544Z,8.83
2018-06-14T22:15:58.669Z,6.53
2018-06-14T22:18:26.809Z,7.47
2018-06-14T22:20:54.933Z,8.27
2018-06-14T22:23:23.111Z,8.10
2018-06-14T22:25:51.232Z,7.53
2018-06-14T22:28:19.358Z,7.20
2018-06-14T22:30:47.541Z,8.40
2018-06-14T22:34:30.716Z,7.37
2018-06-14T22:36:58.894Z,8.50
2018-06-14T22:39:27.017Z,8.20
2018-06-14T22:41:55.135Z,6.50
2018-06-14T22:44:23.378Z,7.33
2018-06-14T22:46:51.446Z,8.83
2018-06-14T22:49:19.568Z,7.13
2018-06-14T22:52:53.272Z,7.00
2018-06-14T22:55:22.401Z,9.50
2018-06-14T22:57:50.803Z,7.73
2018-06-14T23:01:24.827Z,7.43
2018-06-14T23:03:53.012Z,7.47
2018-06-14T23:06:21.225Z,6.57
2018-06-14T23:08:49.360Z,7.77
2018-06-14T23:11:20.053Z,8.40
2018-06-14T23:13:48.189Z,9.10
2018-06-14T23:16:16.345Z,9.77
2018-06-14T23:18:44.464Z,9.90
2018-06-14T23:21:12.615Z,6.23
2018-06-14T23:23:40.789Z,8.47
2018-06-14T23:26:08.926Z,10.20
2018-06-14T23:28:37.049Z,8.30
2018-06-14T23:31:05.180Z,10.63
2018-06-14T23:33:33.308Z,9.60
2018-06-14T23:36:01.443Z,9.47
2018-06-14T23:38:29.560Z,8.40
2018-06-14T23:40:57.692Z,8.73
2018-06-14T23:43:26.075Z,10.13
2018-06-14T23:45:54.239Z,9.20
2018-06-14T23:48:22.384Z,9.80
2018-06-14T23:50:50.521Z,13.80
2018-06-14T23:53:18.408Z,12.57
2018-06-14T23:55:46.516Z,13.27
2018-06-14T23:58:14.632Z,9.30
